Time;durP1;ratioP1;P1;durP2;ratioP2;P2;SDS_P1;SDS_P2;PMS_P1;PMS_P2;Temp;Humidity;BMP_temperature;BMP_pressure;BME280_temperature;BME280_humidity;BME280_pressure;Samples;Min_cycle;Max_cycle;Signal;HPM_P1;HPM_P2
2024/01/08 00:00:40;;;;;;;10.50;5.53;;;;;;;0.35;77.99;101154.25;5035771;28;20052;-78
2024/01/08 00:03:06;;;;;;;7.20;5.10;;;;;;;0.35;77.17;101152.53;5012965;28;20049;-77
2024/01/08 00:05:37;;;;;;;10.77;5.65;;;;;;;0.32;76.54;101146.44;5013397;28;20050;-80
2024/01/08 00:08:08;;;;;;;9.38;6.07;;;;;;;0.33;76.27;101155.97;5013361;28;20097;-78
2024/01/08 00:10:38;;;;;;;10.98;5.90;;;;;;;0.29;75.92;101144.72;5038732;28;20053;-76
2024/01/08 00:13:05;;;;;;;10.25;6.45;;;;;;;0.29;76.30;101151.63;5030775;28;20046;-77
2024/01/08 00:15:32;;;;;;;8.57;5.65;;;;;;;0.26;76.69;101157.63;5013029;28;20112;-76
2024/01/08 00:17:59;;;;;;;9.35;5.55;;;;;;;0.24;76.81;101152.47;5013268;28;20446;-78
2024/01/08 00:20:26;;;;;;;8.32;5.30;;;;;;;0.22;76.30;101150.72;5020690;28;20069;-77
2024/01/08 00:22:53;;;;;;;9.27;6.20;;;;;;;0.21;76.52;101151.53;5030290;28;20490;-76
2024/01/08 00:25:21;;;;;;;10.55;6.50;;;;;;;0.19;76.69;101150.69;5030574;28;20141;-76
2024/01/08 00:27:49;;;;;;;8.30;5.47;;;;;;;0.19;76.63;101156.72;5030431;28;20621;-77
2024/01/08 00:30:17;;;;;;;10.48;6.55;;;;;;;0.20;76.74;101147.22;5020456;28;20052;-77
2024/01/08 00:32:44;;;;;;;12.55;6.40;;;;;;;0.18;76.29;101143.78;5031089;28;20049;-76
2024/01/08 00:35:12;;;;;;;9.07;5.85;;;;;;;0.17;76.12;101142.00;5034722;28;20053;-76
2024/01/08 00:37:41;;;;;;;11.82;5.80;;;;;;;0.17;76.72;101140.31;5034393;28;20045;-76
2024/01/08 00:40:11;;;;;;;8.82;5.78;;;;;;;0.17;76.27;101148.06;5041280;28;20045;-76
2024/01/08 00:42:38;;;;;;;9.73;6.43;;;;;;;0.16;76.25;101145.47;5036182;28;20049;-78
2024/01/08 00:45:07;;;;;;;12.43;6.45;;;;;;;0.15;76.66;101143.75;5036617;28;20052;-76
2024/01/08 00:47:33;;;;;;;8.50;5.38;;;;;;;0.14;76.32;101137.69;5054420;28;20056;-76
2024/01/08 00:50:01;;;;;;;11.27;5.95;;;;;;;0.15;76.40;101146.31;5051317;28;20417;-78
2024/01/08 00:52:29;;;;;;;10.90;6.05;;;;;;;0.15;77.21;101144.59;5036581;28;20135;-79
2024/01/08 00:55:01;;;;;;;9.95;5.95;;;;;;;0.16;76.84;101140.28;5036490;28;20106;-76
2024/01/08 00:57:28;;;;;;;11.13;6.38;;;;;;;0.17;76.57;101142.91;5054172;28;20502;-76
2024/01/08 00:59:54;;;;;;;10.95;6.57;;;;;;;0.18;76.82;101147.22;5053853;28;20562;-77
2024/01/08 01:02:21;;;;;;;8.85;5.88;;;;;;;0.18;76.90;101144.63;5054147;28;20140;-77
2024/01/08 01:04:47;;;;;;;12.57;6.53;;;;;;;0.19;76.48;101145.50;5054085;28;20488;-77
2024/01/08 01:07:15;;;;;;;11.63;6.60;;;;;;;0.21;76.30;101154.13;5054147;28;20041;-76
2024/01/08 01:09:43;;;;;;;8.88;5.85;;;;;;;0.20;76.27;101155.00;5053292;28;20103;-78
2024/01/08 01:12:17;;;;;;;10.20;6.05;;;;;;;0.21;76.35;101143.78;5053900;28;20053;-78
2024/01/08 01:14:43;;;;;;;10.68;6.30;;;;;;;0.21;76.48;101148.94;5035970;28;20490;-76
2024/01/08 01:17:10;;;;;;;9.68;5.57;;;;;;;0.19;76.55;101150.69;5053745;28;20090;-77
2024/01/08 01:19:37;;;;;;;8.50;6.03;;;;;;;0.20;76.48;101157.59;5053820;28;20107;-77
2024/01/08 01:22:04;;;;;;;9.82;6.50;;;;;;;0.20;76.60;101165.34;5053485;28;20692;-75
2024/01/08 01:24:30;;;;;;;13.65;6.50;;;;;;;0.19;76.40;101161.88;5035804;28;20055;-76
2024/01/08 01:26:57;;;;;;;13.45;6.57;;;;;;;0.21;76.46;101165.38;5053646;28;20092;-76
2024/01/08 01:29:24;;;;;;;13.65;5.97;;;;;;;0.22;76.80;101168.84;5032172;28;20450;-76
2024/01/08 01:31:50;;;;;;;14.18;6.78;;;;;;;0.22;76.48;101167.09;5033275;28;20049;-77
2024/01/08 01:34:18;;;;;;;10.35;6.00;;;;;;;0.23;76.54;101165.38;5023558;28;20429;-76
2024/01/08 01:36:45;;;;;;;12.40;6.60;;;;;;;0.22;76.38;101167.09;5033411;28;20095;-77
2024/01/08 01:39:12;;;;;;;11.65;7.10;;;;;;;0.22;75.93;101167.09;5015998;28;20465;-77
2024/01/08 01:41:39;;;;;;;9.80;6.00;;;;;;;0.22;76.61;101171.44;5015358;28;20140;-79
2024/01/08 01:44:05;;;;;;;9.90;6.28;;;;;;;0.23;76.12;101167.97;5020416;28;20041;-76
2024/01/08 01:46:48;;;;;;;11.88;7.35;;;;;;;0.21;74.65;101175.72;5052752;28;20092;-77
2024/01/08 01:49:17;;;;;;;13.30;6.90;;;;;;;0.24;76.38;101180.06;5053188;28;20559;-76
2024/01/08 01:51:46;;;;;;;10.40;6.60;;;;;;;0.24;75.98;101180.94;5052783;28;20072;-77
2024/01/08 01:54:14;;;;;;;10.50;6.57;;;;;;;0.23;75.95;101178.34;5032362;28;20056;-76
2024/01/08 01:56:44;;;;;;;10.25;7.15;;;;;;;0.23;76.23;101178.34;5033039;28;20057;-76
2024/01/08 01:59:11;;;;;;;11.43;7.18;;;;;;;0.23;76.29;101175.75;5033034;28;20482;-77
2024/01/08 02:01:37;;;;;;;11.05;7.13;;;;;;;0.23;76.24;101173.16;5032648;28;20794;-76
2024/01/08 02:04:04;;;;;;;11.35;7.45;;;;;;;0.22;75.93;101172.28;5015902;28;20057;-77
2024/01/08 02:06:35;;;;;;;12.55;7.70;;;;;;;0.21;75.82;101180.91;5033209;28;20398;-75
2024/01/08 02:09:02;;;;;;;15.82;8.18;;;;;;;0.21;76.26;101180.03;5015605;28;20138;-76
2024/01/08 02:11:29;;;;;;;13.38;7.63;;;;;;;0.20;75.86;101184.38;5032535;28;20081;-77
2024/01/08 02:13:56;;;;;;;14.50;8.13;;;;;;;0.19;76.17;101172.25;5035454;28;20452;-77
2024/01/08 02:16:23;;;;;;;16.90;8.73;;;;;;;0.19;76.47;101176.56;5037774;28;20057;-76
2024/01/08 02:18:49;;;;;;;15.63;9.20;;;;;;;0.19;76.60;101171.41;5015173;28;20100;-77
2024/01/08 02:21:16;;;;;;;18.25;9.90;;;;;;;0.19;76.53;101173.97;5014865;28;20057;-77
2024/01/08 02:23:44;;;;;;;14.70;9.73;;;;;;;0.17;76.37;101171.38;5014937;28;20077;-76
2024/01/08 02:26:12;;;;;;;15.77;9.80;;;;;;;0.18;76.86;101177.44;5022531;28;20053;-77
2024/01/08 02:28:38;;;;;;;16.63;9.77;;;;;;;0.18;76.42;101178.28;5014764;28;20050;-75
2024/01/08 02:31:05;;;;;;;19.38;9.95;;;;;;;0.18;76.75;101177.44;5032202;28;20063;-76
2024/01/08 02:33:32;;;;;;;15.05;9.75;;;;;;;0.18;76.44;101177.44;5032165;28;20141;-77
2024/01/08 02:35:58;;;;;;;18.33;10.10;;;;;;;0.16;76.56;101172.25;5040122;28;20460;-74
2024/01/08 02:38:25;;;;;;;14.82;9.20;;;;;;;0.18;76.52;101180.03;5032420;28;20045;-76
2024/01/08 02:40:52;;;;;;;16.40;9.48;;;;;;;0.18;76.87;101169.66;5032090;28;20067;-78
2024/01/08 02:43:18;;;;;;;17.65;9.73;;;;;;;0.20;76.85;101170.53;5014385;28;20050;-76
2024/01/08 02:45:45;;;;;;;18.05;9.65;;;;;;;0.22;76.85;101174.03;5040094;28;20433;-76
2024/01/08 02:48:12;;;;;;;16.83;9.90;;;;;;;0.23;76.93;101171.41;5034170;28;20135;-77
2024/01/08 02:50:39;;;;;;;16.63;9.95;;;;;;;0.24;76.94;101178.34;5034068;28;20095;-77
2024/01/08 02:53:05;;;;;;;16.48;10.15;;;;;;;0.27;76.91;101181.81;5052048;28;20138;-76
2024/01/08 02:55:32;;;;;;;15.88;9.10;;;;;;;0.28;77.03;101181.84;5033796;28;20057;-76
2024/01/08 02:58:03;;;;;;;16.27;9.55;;;;;;;0.29;76.73;101177.53;5034922;28;20391;-77
2024/01/08 03:00:30;;;;;;;17.60;9.48;;;;;;;0.32;77.28;101180.13;5032196;28;20092;-75
2024/01/08 03:02:56;;;;;;;14.93;9.25;;;;;;;0.33;77.50;101179.28;5031624;28;20049;-78
2024/01/08 03:05:23;;;;;;;16.92;9.90;;;;;;;0.35;77.17;101178.44;5031890;28;20046;-76
2024/01/08 03:07:49;;;;;;;14.43;9.52;;;;;;;0.38;77.04;101190.56;5039680;28;20536;-75
2024/01/08 03:10:16;;;;;;;15.55;9.43;;;;;;;0.38;76.97;101178.44;5013824;28;20037;-76
2024/01/08 03:12:42;;;;;;;15.18;8.80;;;;;;;0.40;76.69;101183.66;5031418;28;20132;-77
2024/01/08 03:15:09;;;;;;;18.75;10.68;;;;;;;0.40;76.92;101186.25;5014218;28;20471;-77
2024/01/08 03:17:36;;;;;;;15.60;9.27;;;;;;;0.40;76.84;101178.47;5028577;28;20121;-75
2024/01/08 03:20:04;;;;;;;14.00;9.23;;;;;;;0.41;77.05;101179.34;5033446;28;20049;-78
2024/01/08 03:22:30;;;;;;;17.85;9.60;;;;;;;0.40;76.40;101175.88;5051252;28;20136;-75
2024/01/08 03:24:58;;;;;;;15.35;9.25;;;;;;;0.38;76.41;101180.19;5051199;28;20044;-77
2024/01/08 03:27:24;;;;;;;21.05;10.38;;;;;;;0.37;76.42;101181.03;5042306;28;20134;-77
2024/01/08 03:29:52;;;;;;;17.65;10.05;;;;;;;0.36;75.93;101175.00;5050847;28;20052;-76
2024/01/08 03:32:19;;;;;;;18.05;9.65;;;;;;;0.35;76.31;101181.03;5033384;28;20061;-76
2024/01/08 03:34:46;;;;;;;14.57;9.85;;;;;;;0.33;76.63;101181.88;5033577;28;20494;-75
2024/01/08 03:37:13;;;;;;;16.20;9.32;;;;;;;0.32;76.92;101181.00;5026694;28;20530;-76
2024/01/08 03:39:39;;;;;;;16.75;9.25;;;;;;;0.32;76.65;101187.91;5048796;28;20056;-78
2024/01/08 03:42:06;;;;;;;16.92;9.55;;;;;;;0.31;76.52;101187.03;5051029;28;20151;-78
2024/01/08 03:44:33;;;;;;;14.75;9.07;;;;;;;0.32;76.58;101188.78;5051141;28;20072;-76
2024/01/08 03:47:00;;;;;;;15.55;9.30;;;;;;;0.32;76.82;101188.78;5032771;28;20053;-76
2024/01/08 03:49:27;;;;;;;20.17;9.80;;;;;;;0.31;76.33;101187.03;5037244;28;20131;-78
2024/01/08 03:51:53;;;;;;;23.58;11.15;;;;;;;0.31;76.84;101186.16;5013397;28;20073;-76
2024/01/08 03:54:20;;;;;;;24.10;11.27;;;;;;;0.31;76.54;101181.00;5013417;28;20050;-76
2024/01/08 03:56:46;;;;;;;21.95;11.95;;;;;;;0.29;76.73;101183.56;5031091;28;20049;-78
2024/01/08 03:59:14;;;;;;;18.80;9.98;;;;;;;0.30;77.03;101180.09;5020680;28;20057;-76
2024/01/08 04:01:45;;;;;;;15.98;9.52;;;;;;;0.31;76.26;101181.00;5031040;28;20167;-77
2024/01/08 04:04:11;;;;;;;17.35;9.77;;;;;;;0.32;76.93;101187.91;5030965;28;20585;-78
2024/01/08 04:06:38;;;;;;;14.43;8.32;;;;;;;0.33;76.99;101185.31;5013230;28;20058;-77
2024/01/08 04:09:05;;;;;;;12.13;7.95;;;;;;;0.33;76.70;101180.13;5020567;28;20045;-76
2024/01/08 04:11:31;;;;;;;17.10;8.30;;;;;;;0.33;76.94;101182.72;5030409;28;20053;-75
2024/01/08 04:13:58;;;;;;;15.60;9.05;;;;;;;0.34;76.81;101181.03;5013183;28;20057;-78
2024/01/08 04:16:25;;;;;;;16.83;9.05;;;;;;;0.34;76.89;101179.28;5030744;28;20145;-76
2024/01/08 04:18:53;;;;;;;16.67;9.05;;;;;;;0.35;77.17;101186.22;5021031;28;20099;-78
2024/01/08 04:21:20;;;;;;;15.43;8.55;;;;;;;0.36;76.69;101193.13;5012935;28;20064;-75
2024/01/08 04:23:47;;;;;;;15.55;8.25;;;;;;;0.37;76.74;101188.78;5030204;28;20482;-77
2024/01/08 04:26:16;;;;;;;12.90;8.43;;;;;;;0.37;77.14;101186.22;5013222;28;20042;-77
2024/01/08 04:28:43;;;;;;;16.05;8.73;;;;;;;0.37;76.58;101187.09;5018030;28;20053;-77
2024/01/08 04:31:20;;;;;;;14.95;9.05;;;;;;;0.36;75.54;101180.19;5015614;28;20053;-76
2024/01/08 04:33:47;;;;;;;14.25;8.85;;;;;;;0.41;76.95;101179.34;5030304;28;20057;-76
2024/01/08 04:36:15;;;;;;;15.07;9.10;;;;;;;0.38;76.67;101175.00;5013092;28;20049;-76
2024/01/08 04:38:44;;;;;;;13.57;7.82;;;;;;;0.38;76.82;101183.63;5014219;28;20045;-74
2024/01/08 04:41:16;;;;;;;12.25;7.78;;;;;;;0.39;76.47;101174.16;5049660;28;20144;-77
2024/01/08 04:43:43;;;;;;;13.07;7.72;;;;;;;0.40;76.50;101177.63;5050211;28;20743;-75
2024/01/08 04:46:09;;;;;;;14.57;7.80;;;;;;;0.38;76.50;101175.00;5050299;28;20102;-78
2024/01/08 04:48:36;;;;;;;11.27;7.38;;;;;;;0.39;77.11;101174.16;5050099;28;20057;-76
2024/01/08 04:51:03;;;;;;;12.82;7.10;;;;;;;0.36;76.72;101175.00;5041127;28;20140;-77
2024/01/08 04:53:33;;;;;;;15.90;7.97;;;;;;;0.36;76.11;101168.94;5050011;28;20612;-77
2024/01/08 04:56:00;;;;;;;11.93;7.65;;;;;;;0.38;76.75;101177.59;5050483;28;20052;-77
2024/01/08 04:58:27;;;;;;;14.20;7.60;;;;;;;0.38;76.76;101178.44;5032434;28;20497;-76
2024/01/08 05:00:54;;;;;;;14.20;7.65;;;;;;;0.41;76.55;101181.94;5041088;28;20128;-76
2024/01/08 05:03:21;;;;;;;12.50;7.53;;;;;;;0.42;76.93;101178.50;5049675;28;20057;-77
2024/01/08 05:05:47;;;;;;;14.75;8.35;;;;;;;0.42;76.90;101184.56;5032477;28;20056;-77
2024/01/08 05:08:14;;;;;;;13.85;7.22;;;;;;;0.43;76.85;101183.69;5032371;28;20836;-76
2024/01/08 05:10:41;;;;;;;12.82;7.20;;;;;;;0.46;77.17;101188.03;5023297;28;20060;-76
2024/01/08 05:13:07;;;;;;;12.82;8.05;;;;;;;0.46;76.81;101183.72;5049939;28;20059;-75
2024/01/08 05:15:34;;;;;;;11.45;7.35;;;;;;;0.47;76.49;101176.78;5050050;28;20049;-77
2024/01/08 05:18:01;;;;;;;14.48;7.28;;;;;;;0.48;76.70;101173.34;5032188;28;20061;-77
2024/01/08 05:20:30;;;;;;;12.38;6.63;;;;;;;0.49;76.49;101183.72;5046088;28;20483;-76
2024/01/08 05:22:57;;;;;;;13.60;6.68;;;;;;;0.47;76.57;101188.03;5032275;28;20041;-75
2024/01/08 05:25:24;;;;;;;11.05;6.60;;;;;;;0.48;76.49;101188.88;5053904;28;20525;-77
2024/01/08 05:27:50;;;;;;;10.52;6.55;;;;;;;0.49;76.40;101188.06;5053361;28;20052;-76
2024/01/08 05:30:17;;;;;;;10.88;6.63;;;;;;;0.50;76.26;101192.38;5052961;28;20140;-77
2024/01/08 05:32:44;;;;;;;12.63;7.25;;;;;;;0.49;76.54;101190.66;5040743;28;20487;-76
2024/01/08 05:35:10;;;;;;;10.98;6.55;;;;;;;0.50;76.64;101189.78;5033303;28;20494;-77
2024/01/08 05:37:37;;;;;;;10.32;6.30;;;;;;;0.50;76.97;101193.25;5033513;28;20057;-77
2024/01/08 05:40:04;;;;;;;10.00;6.03;;;;;;;0.50;76.91;101193.25;5015562;28;20087;-75
2024/01/08 05:42:31;;;;;;;11.45;6.80;;;;;;;0.49;75.99;101193.25;5023512;28;20053;-76
2024/01/08 05:44:57;;;;;;;11.23;5.80;;;;;;;0.50;76.53;101193.25;5033226;28;20053;-77
2024/01/08 05:47:24;;;;;;;11.05;6.25;;;;;;;0.50;76.37;101197.56;5033426;28;20193;-76
2024/01/08 05:49:50;;;;;;;11.68;6.10;;;;;;;0.49;76.62;101196.69;5015590;28;20757;-76
2024/01/08 05:52:17;;;;;;;10.50;6.22;;;;;;;0.49;76.17;101195.81;5041224;28;20111;-77
2024/01/08 05:54:43;;;;;;;8.35;5.40;;;;;;;0.49;76.49;101194.09;5015383;28;20050;-76
2024/01/08 05:57:10;;;;;;;8.32;5.60;;;;;;;0.48;76.90;101200.13;5033123;28;20450;-75
2024/01/08 05:59:37;;;;;;;13.20;6.80;;;;;;;0.49;76.99;101201.00;5033004;28;20050;-75
2024/01/08 06:02:06;;;;;;;9.57;5.40;;;;;;;0.48;76.94;101196.66;5039992;28;20053;-77
2024/01/08 06:04:33;;;;;;;10.68;6.07;;;;;;;0.49;76.54;101203.59;5034731;28;20136;-76
2024/01/08 06:07:00;;;;;;;9.60;6.10;;;;;;;0.49;76.66;101201.00;5034966;28;20140;-75
2024/01/08 06:09:26;;;;;;;11.35;5.47;;;;;;;0.50;76.36;101211.38;5035087;28;20136;-77
2024/01/08 06:11:52;;;;;;;11.00;5.80;;;;;;;0.50;76.61;101207.91;5264325;23;20081;-77
2024/01/08 06:14:19;;;;;;;10.00;6.25;;;;;;;0.50;76.78;101207.91;5014179;28;20057;-77
2024/01/08 06:16:46;;;;;;;10.88;5.82;;;;;;;0.51;76.42;101209.66;5002580;28;20129;-76
2024/01/08 06:19:12;;;;;;;10.43;5.45;;;;;;;0.51;76.25;101217.41;5012955;28;20541;-79
2024/01/08 06:21:39;;;;;;;10.60;5.63;;;;;;;0.51;76.79;101220.91;5011928;28;20046;-82
2024/01/08 06:24:06;;;;;;;11.73;6.45;;;;;;;0.50;76.17;101221.75;5012381;28;20486;-80
2024/01/08 06:26:32;;;;;;;10.23;6.05;;;;;;;0.51;76.58;101217.41;5012655;28;20495;-80
2024/01/08 06:29:00;;;;;;;12.27;5.93;;;;;;;0.51;76.16;101217.41;4995664;28;20735;-84
2024/01/08 06:31:27;;;;;;;8.75;5.63;;;;;;;0.51;76.43;101223.47;5023776;28;20092;-79
2024/01/08 06:33:53;;;;;;;11.07;5.97;;;;;;;0.51;75.97;101223.47;5032372;28;20050;-80
2024/01/08 06:36:20;;;;;;;9.13;6.03;;;;;;;0.52;76.72;101225.22;5032441;28;20154;-80
2024/01/08 06:38:47;;;;;;;9.15;5.38;;;;;;;0.52;76.93;101226.91;5032331;28;20093;-81
2024/01/08 06:41:13;;;;;;;11.40;6.22;;;;;;;0.52;76.56;101227.81;5025437;28;20479;-80
2024/01/08 06:43:40;;;;;;;11.10;6.18;;;;;;;0.52;76.18;101227.81;4995095;28;20062;-79
2024/01/08 06:46:07;;;;;;;8.77;5.47;;;;;;;0.52;76.77;101225.22;5012587;28;20084;-80
2024/01/08 06:48:34;;;;;;;9.88;5.90;;;;;;;0.52;76.53;101224.34;5012625;28;20141;-79
2024/01/08 06:51:04;;;;;;;11.98;5.88;;;;;;;0.51;76.49;101236.44;5013715;28;20050;-78
2024/01/08 06:53:30;;;;;;;9.75;5.75;;;;;;;0.53;76.48;101226.09;5013917;28;20099;-79
2024/01/08 06:55:57;;;;;;;9.48;6.00;;;;;;;0.54;76.49;101232.13;5032254;28;20133;-78
2024/01/08 06:58:23;;;;;;;10.60;5.93;;;;;;;0.55;76.49;101242.50;5031870;28;20045;-79
2024/01/08 07:00:50;;;;;;;8.68;5.88;;;;;;;0.52;76.84;101232.97;5014513;28;20484;-79
2024/01/08 07:03:17;;;;;;;9.20;6.30;;;;;;;0.53;76.59;101236.44;5013763;28;20050;-79
2024/01/08 07:05:44;;;;;;;8.90;5.97;;;;;;;0.52;76.43;101237.28;4994696;28;20053;-79
2024/01/08 07:08:14;;;;;;;9.10;6.03;;;;;;;0.51;76.39;101245.91;5012012;28;20081;-78
2024/01/08 07:10:40;;;;;;;8.45;5.82;;;;;;;0.50;76.51;101241.59;5012009;28;20388;-76
2024/01/08 07:13:07;;;;;;;8.38;5.75;;;;;;;0.48;76.30;101240.69;5024076;28;20577;-78
2024/01/08 07:15:48;;;;;;;10.52;6.32;;;;;;;0.45;74.95;101251.06;5031775;28;20085;-79
2024/01/08 07:18:16;;;;;;;9.20;6.00;;;;;;;0.47;75.96;101247.63;5031695;28;20045;-80
2024/01/08 07:20:43;;;;;;;10.32;6.05;;;;;;;0.48;76.68;101251.06;5031292;28;20387;-78
2024/01/08 07:23:11;;;;;;;8.32;5.97;;;;;;;0.46;76.29;101255.38;5003784;28;20050;-79
2024/01/08 07:25:38;;;;;;;10.65;5.85;;;;;;;0.46;76.32;101253.66;5016450;28;20517;-79
2024/01/08 07:28:07;;;;;;;10.63;6.50;;;;;;;0.45;76.26;101251.06;5013745;28;20421;-79
2024/01/08 07:30:35;;;;;;;9.52;6.18;;;;;;;0.45;76.25;101257.09;5031296;28;20057;-79
2024/01/08 07:33:02;;;;;;;9.45;6.13;;;;;;;0.47;76.51;101254.53;5031200;28;20129;-79
2024/01/08 07:35:29;;;;;;;9.57;6.32;;;;;;;0.47;76.70;101264.88;5013057;28;20390;-79
2024/01/08 07:37:56;;;;;;;10.05;6.05;;;;;;;0.49;77.07;101258.00;5011958;28;20065;-79
2024/01/08 07:40:26;;;;;;;10.13;5.97;;;;;;;0.50;76.77;101255.44;5011591;28;20050;-79
2024/01/08 07:42:57;;;;;;;9.75;6.72;;;;;;;0.50;75.85;101264.91;5010838;28;20054;-80
2024/01/08 07:45:25;;;;;;;7.65;5.45;;;;;;;0.54;77.14;101269.28;4994194;28;20140;-80
2024/01/08 07:47:52;;;;;;;9.10;5.45;;;;;;;0.54;76.77;101266.69;5010348;28;20052;-77
2024/01/08 07:50:19;;;;;;;9.93;5.55;;;;;;;0.56;76.75;101264.13;5031183;28;20100;-80
2024/01/08 07:52:46;;;;;;;12.60;6.47;;;;;;;0.55;76.40;101271.00;5013393;28;20057;-77
2024/01/08 07:55:13;;;;;;;7.40;5.32;;;;;;;0.56;76.27;101267.56;5031018;28;20461;-79
2024/01/08 07:57:39;;;;;;;9.43;6.25;;;;;;;0.56;76.44;101290.88;5017178;28;20042;-77
2024/01/08 08:00:09;;;;;;;10.57;6.25;;;;;;;0.57;76.37;101283.97;5010753;28;20137;-77
2024/01/08 08:02:36;;;;;;;11.82;5.78;;;;;;;0.55;75.94;101276.19;5010064;28;20475;-79
2024/01/08 08:05:03;;;;;;;9.63;6.18;;;;;;;0.53;75.68;101280.50;5010489;28;20563;-79
2024/01/08 08:07:31;;;;;;;10.82;6.43;;;;;;;0.53;76.42;101288.28;5019252;28;20054;-79
2024/01/08 08:09:58;;;;;;;9.88;5.90;;;;;;;0.51;76.45;101282.19;5030649;28;20088;-78
2024/01/08 08:12:26;;;;;;;10.15;6.43;;;;;;;0.50;76.20;101291.72;5030883;28;20104;-79
2024/01/08 08:14:53;;;;;;;8.32;5.80;;;;;;;0.52;76.31;101294.28;5030805;28;20109;-77
2024/01/08 08:17:20;;;;;;;9.27;5.80;;;;;;;0.51;76.61;101287.38;5027122;28;20042;-77
2024/01/08 08:19:47;;;;;;;8.90;5.45;;;;;;;0.52;76.20;101283.94;5011027;28;20093;-77
2024/01/08 08:22:14;;;;;;;13.10;5.85;;;;;;;0.52;76.10;101289.09;5011270;28;20050;-79
2024/01/08 08:24:42;;;;;;;7.70;5.03;;;;;;;0.51;76.09;101296.03;5011050;28;20133;-76
2024/01/08 08:27:09;;;;;;;8.18;5.43;;;;;;;0.50;75.66;101294.31;5010918;28;20046;-78
2024/01/08 08:29:37;;;;;;;8.88;5.43;;;;;;;0.47;75.21;101301.16;5029386;28;20076;-78
2024/01/08 08:32:05;;;;;;;10.55;5.38;;;;;;;0.44;75.28;101307.19;5012885;28;20045;-79
2024/01/08 08:34:32;;;;;;;8.68;5.45;;;;;;;0.43;76.20;101296.78;5030720;28;20080;-77
2024/01/08 08:36:59;;;;;;;8.43;4.95;;;;;;;0.44;76.46;101306.31;5013168;28;20132;-77
2024/01/08 08:39:30;;;;;;;6.97;5.10;;;;;;;0.45;76.69;101311.50;5014964;28;20042;-79
2024/01/08 08:41:57;;;;;;;7.05;5.22;;;;;;;0.48;76.94;101310.66;5010610;28;20057;-78
2024/01/08 08:44:24;;;;;;;8.05;5.55;;;;;;;0.52;77.05;101315.91;5010631;28;20113;-77
2024/01/08 08:46:51;;;;;;;7.85;5.10;;;;;;;0.56;76.48;101324.56;4993418;28;20089;-77
2024/01/08 08:49:17;;;;;;;7.45;5.32;;;;;;;0.60;77.66;101328.91;5003617;28;20058;-77
2024/01/08 08:51:44;;;;;;;7.97;5.78;;;;;;;0.66;77.72;101333.31;5030145;28;20494;-78
2024/01/08 08:54:10;;;;;;;9.18;5.90;;;;;;;0.71;78.29;101336.81;5031453;28;20123;-77
2024/01/08 08:56:37;;;;;;;9.27;6.20;;;;;;;0.75;77.41;101340.31;5034156;28;20157;-76
2024/01/08 08:59:04;;;;;;;10.15;6.20;;;;;;;0.78;76.87;101336.00;5027994;28;20189;-77
2024/01/08 09:01:31;;;;;;;7.80;5.47;;;;;;;0.82;77.60;101339.50;5013604;28;20173;-77
2024/01/08 09:03:57;;;;;;;9.75;6.05;;;;;;;0.86;77.76;101350.78;5020951;28;20050;-77
2024/01/08 09:06:24;;;;;;;8.55;5.60;;;;;;;0.88;76.97;101341.28;5015846;28;20057;-80
2024/01/08 09:08:52;;;;;;;8.35;5.82;;;;;;;0.88;76.14;101351.66;5030110;28;20045;-78
2024/01/08 09:11:19;;;;;;;9.30;5.18;;;;;;;0.86;75.81;101346.44;5011753;28;20096;-78
2024/01/08 09:13:47;;;;;;;8.93;5.97;;;;;;;0.83;74.84;101350.75;4995478;28;20079;-78
2024/01/08 09:16:15;;;;;;;7.25;4.72;;;;;;;0.77;75.28;101362.78;5013246;28;20136;-78
2024/01/08 09:18:43;;;;;;;6.57;4.45;;;;;;;0.71;74.67;101372.25;5013997;28;20045;-77
2024/01/08 09:21:11;;;;;;;7.15;4.47;;;;;;;0.64;74.12;101372.16;5013097;28;20061;-78
2024/01/08 09:23:38;;;;;;;7.28;4.57;;;;;;;0.58;74.73;101368.63;5034202;28;20049;-77
2024/01/08 09:26:05;;;;;;;8.55;5.20;;;;;;;0.51;74.29;101384.13;5016747;28;20057;-76
2024/01/08 09:28:32;;;;;;;9.52;4.78;;;;;;;0.44;74.41;101376.28;5034447;28;20054;-76
2024/01/08 09:31:03;;;;;;;7.90;5.05;;;;;;;0.35;73.63;101377.91;5005255;28;20038;-76
2024/01/08 09:33:30;;;;;;;7.70;4.55;;;;;;;0.30;74.71;101386.47;5014759;28;20050;-81
2024/01/08 09:35:58;;;;;;;7.07;4.75;;;;;;;0.24;74.68;101390.72;4997554;28;20053;-76
2024/01/08 09:38:25;;;;;;;8.52;4.53;;;;;;;0.20;74.43;101385.47;5003297;28;20820;-77
2024/01/08 09:40:51;;;;;;;7.00;4.43;;;;;;;0.12;73.86;101386.25;4996932;28;20045;-75
2024/01/08 09:43:21;;;;;;;6.30;3.90;;;;;;;0.09;74.28;101391.41;5014562;28;20058;-75
2024/01/08 09:46:05;;;;;;;7.68;4.47;;;;;;;0.04;71.89;101392.19;5013701;28;20050;-79
2024/01/08 09:48:34;;;;;;;5.85;3.70;;;;;;;0.03;73.52;101406.84;5005130;28;20046;-75
2024/01/08 09:51:01;;;;;;;7.50;3.95;;;;;;;-0.01;73.57;101413.72;5032414;28;20057;-80
2024/01/08 09:53:29;;;;;;;6.20;3.72;;;;;;;-0.03;73.74;101404.19;5033095;28;20045;-76
2024/01/08 09:55:57;;;;;;;8.38;3.70;;;;;;;-0.03;73.72;101406.78;5015393;28;20413;-80
2024/01/08 09:58:27;;;;;;;7.43;4.15;;;;;;;-0.05;72.31;101406.75;5027299;28;20048;-76
2024/01/08 10:00:54;;;;;;;5.53;3.60;;;;;;;-0.05;73.16;101392.91;5029464;28;20045;-77
2024/01/08 10:03:21;;;;;;;4.80;3.50;;;;;;;-0.06;72.76;101398.97;5014534;28;20049;-76
2024/01/08 10:05:48;;;;;;;6.07;3.53;;;;;;;-0.08;73.24;101395.50;5032588;28;20112;-80
2024/01/08 10:08:16;;;;;;;7.47;3.30;;;;;;;-0.10;72.97;101400.63;5033410;28;20054;-75
2024/01/08 10:10:42;;;;;;;5.30;3.50;;;;;;;-0.10;73.74;101407.53;5033086;28;20053;-76
2024/01/08 10:13:10;;;;;;;4.68;3.25;;;;;;;-0.11;73.23;101404.06;5032538;28;20099;-75
2024/01/08 10:15:37;;;;;;;4.85;3.22;;;;;;;-0.12;72.80;101397.16;5032987;28;20680;-79
2024/01/08 10:18:08;;;;;;;6.07;3.78;;;;;;;-0.11;73.20;101408.38;5033256;28;20045;-76
2024/01/08 10:20:36;;;;;;;5.20;3.20;;;;;;;-0.11;72.71;101403.22;5015378;28;20049;-77
2024/01/08 10:23:08;;;;;;;5.65;3.30;;;;;;;-0.12;71.58;101414.41;5009912;28;20053;-78
2024/01/08 10:25:37;;;;;;;4.70;3.28;;;;;;;-0.13;71.81;101408.34;5000019;28;20500;-77
2024/01/08 10:28:08;;;;;;;6.25;3.65;;;;;;;-0.16;70.57;101411.78;5032743;28;20053;-78
2024/01/08 10:30:35;;;;;;;4.47;2.90;;;;;;;-0.16;72.36;101396.25;5032747;28;20087;-76
2024/01/08 10:33:02;;;;;;;6.90;3.83;;;;;;;-0.18;72.76;101403.09;5015229;28;20053;-78
2024/01/08 10:35:30;;;;;;;5.95;3.65;;;;;;;-0.17;72.44;101396.22;5014552;28;20049;-78
2024/01/08 10:37:59;;;;;;;7.47;3.47;;;;;;;-0.20;72.49;101402.22;5012787;28;20475;-77
2024/01/08 10:40:29;;;;;;;6.43;3.33;;;;;;;-0.23;71.34;101396.16;5012974;28;20395;-78
2024/01/08 10:42:56;;;;;;;6.18;3.45;;;;;;;-0.21;72.43;101404.78;5013285;28;20089;-75
2024/01/08 10:45:22;;;;;;;5.90;3.63;;;;;;;-0.23;72.24;101402.16;5013384;28;20398;-78
2024/01/08 10:47:55;;;;;;;7.63;3.08;;;;;;;-0.24;72.13;101403.03;5029742;28;20506;-78
2024/01/08 10:50:24;;;;;;;6.18;3.83;;;;;;;-0.22;71.86;101409.06;5033028;28;20046;-80
2024/01/08 10:52:53;;;;;;;5.32;3.08;;;;;;;-0.22;72.13;101406.50;5032624;28;20077;-77
2024/01/08 10:55:22;;;;;;;5.65;3.70;;;;;;;-0.20;72.34;101410.00;5032988;28;20091;-83
2024/01/08 10:57:58;;;;;;;5.18;3.15;;;;;;;-0.19;70.39;101398.78;5018655;28;20593;-79
2024/01/08 11:00:26;;;;;;;4.70;2.97;;;;;;;-0.16;71.99;101406.59;5012933;28;20069;-76
2024/01/08 11:02:53;;;;;;;5.57;3.83;;;;;;;-0.14;72.09;101412.66;5012882;28;20158;-81
2024/01/08 11:05:21;;;;;;;6.15;3.63;;;;;;;-0.11;72.22;101410.97;4995360;28;20093;-80
2024/01/08 11:07:50;;;;;;;4.68;3.38;;;;;;;-0.10;72.09;101410.13;5023449;28;20045;-78
2024/01/08 11:10:18;;;;;;;5.38;3.03;;;;;;;-0.08;72.15;101400.66;5032589;28;20049;-75
2024/01/08 11:12:52;;;;;;;7.10;3.85;;;;;;;-0.07;70.61;101412.75;5032334;28;20053;-77
2024/01/08 11:15:19;;;;;;;7.53;3.80;;;;;;;-0.03;73.22;101407.63;5032560;28;20492;-75
2024/01/08 11:17:51;;;;;;;5.85;4.15;;;;;;;0.03;72.58;101419.78;5005520;28;20042;-82
2024/01/08 11:20:41;;;;;;;6.85;4.00;;;;;;;0.14;71.93;101411.31;5012368;28;20050;-76
2024/01/08 11:23:27;;;;;;;7.22;4.43;;;;;;;0.34;73.06;101404.63;5012448;28;20054;-80
2024/01/08 11:25:53;;;;;;;8.00;4.65;;;;;;;0.64;78.94;101402.41;5012524;28;20086;-78
2024/01/08 11:28:20;;;;;;;6.70;4.30;;;;;;;0.99;79.67;101407.09;5013460;28;20061;-81